Time;durP1;ratioP1;P1;durP2;ratioP2;P2;SDS_P1;SDS_P2;PMS_P1;PMS_P2;Temp;Humidity;BMP_temperature;BMP_pressure;BME280_temperature;BME280_humidity;BME280_pressure;Samples;Min_cycle;Max_cycle;Signal;HPM_P1;HPM_P2
2024/01/19 00:04:18;;;;;;;4.80;3.47;;;;;;;;;;10319941;28;21255;-69
2024/01/19 00:09:19;;;;;;;4.18;3.40;;;;;;;;;;10330581;28;20363;-69
2024/01/19 00:14:20;;;;;;;8.20;3.78;;;;;;;;;;10301486;28;20302;-68
2024/01/19 00:19:21;;;;;;;4.82;3.60;;;;;;;;;;10304921;28;20659;-69
2024/01/19 00:24:22;;;;;;;4.35;3.10;;;;;;;;;;10319671;28;20214;-69
2024/01/19 00:29:23;;;;;;;5.73;3.57;;;;;;;;;;10320232;28;20220;-69
2024/01/19 00:34:24;;;;;;;4.47;3.03;;;;;;;;;;10323896;28;20231;-68
2024/01/19 00:39:25;;;;;;;4.33;3.93;;;;;;;;;;10328364;28;20191;-68
2024/01/19 00:44:26;;;;;;;8.27;3.20;;;;;;;;;;10324504;28;20323;-69
2024/01/19 00:49:28;;;;;;;5.13;2.83;;;;;;;;;;10322343;28;20216;-68
2024/01/19 00:54:29;;;;;;;2.33;2.10;;;;;;;;;;10323587;28;20333;-69
2024/01/19 00:59:30;;;;;;;7.17;2.10;;;;;;;;;;10322374;28;20565;-69
2024/01/19 01:04:31;;;;;;;4.67;2.23;;;;;;;;;;10312994;28;20229;-69
2024/01/19 01:09:32;;;;;;;5.50;1.60;;;;;;;;;;10312830;28;20863;-69
2024/01/19 01:14:33;;;;;;;3.40;2.07;;;;;;;;;;10311238;28;20211;-69
2024/01/19 01:19:34;;;;;;;7.60;2.53;;;;;;;;;;10302778;28;20644;-69
2024/01/19 01:24:35;;;;;;;2.97;2.13;;;;;;;;;;10321583;28;20281;-69
2024/01/19 01:29:36;;;;;;;10.00;2.75;;;;;;;;;;10321597;28;20767;-69
2024/01/19 01:34:37;;;;;;;6.97;2.83;;;;;;;;;;10324965;28;20234;-69
2024/01/19 01:39:38;;;;;;;4.93;2.03;;;;;;;;;;10300203;28;20187;-69
2024/01/19 01:44:39;;;;;;;3.20;2.20;;;;;;;;;;10323482;28;20214;-69
2024/01/19 01:49:40;;;;;;;2.30;1.90;;;;;;;;;;10328147;28;20234;-69
2024/01/19 01:54:41;;;;;;;11.23;2.20;;;;;;;;;;10322149;28;20248;-69
2024/01/19 01:59:42;;;;;;;1.50;1.40;;;;;;;;;;10298478;28;20651;-68
2024/01/19 02:04:43;;;;;;;2.67;1.93;;;;;;;;;;10299351;28;20222;-69
2024/01/19 02:09:45;;;;;;;2.03;1.90;;;;;;;;;;10300676;28;20251;-68
2024/01/19 02:14:46;;;;;;;3.10;1.97;;;;;;;;;;10306938;28;20208;-69
2024/01/19 02:19:47;;;;;;;2.27;1.70;;;;;;;;;;10293609;28;20640;-69
2024/01/19 02:24:48;;;;;;;4.67;1.40;;;;;;;;;;10307592;28;20205;-70
2024/01/19 02:29:50;;;;;;;3.93;1.60;;;;;;;;;;10308573;28;20866;-70
2024/01/19 02:34:51;;;;;;;1.53;1.27;;;;;;;;;;10299842;28;20241;-70
2024/01/19 02:39:52;;;;;;;2.20;0.97;;;;;;;;;;10304729;28;20208;-70
2024/01/19 02:44:53;;;;;;;1.20;0.87;;;;;;;;;;10290491;28;20227;-70
2024/01/19 02:49:54;;;;;;;0.97;0.80;;;;;;;;;;10292997;28;20216;-70
2024/01/19 02:54:55;;;;;;;1.17;0.73;;;;;;;;;;10307051;28;20240;-70
2024/01/19 02:59:56;;;;;;;3.97;0.83;;;;;;;;;;10309817;28;20280;-70
2024/01/19 03:04:57;;;;;;;0.93;0.90;;;;;;;;;;10278137;28;20220;-70
2024/01/19 03:09:58;;;;;;;2.23;1.10;;;;;;;;;;10289811;28;20228;-70
2024/01/19 03:14:59;;;;;;;0.90;0.90;;;;;;;;;;10291832;28;20209;-70
2024/01/19 03:20:00;;;;;;;0.95;0.90;;;;;;;;;;10306660;28;20672;-69
2024/01/19 03:25:02;;;;;;;1.55;1.33;;;;;;;;;;10321729;28;20258;-70
2024/01/19 03:30:04;;;;;;;1.10;1.10;;;;;;;;;;10306908;28;20682;-70
2024/01/19 03:35:05;;;;;;;6.10;1.17;;;;;;;;;;10315462;28;20356;-71
2024/01/19 03:40:06;;;;;;;1.20;0.87;;;;;;;;;;10323768;28;20250;-70
2024/01/19 03:45:07;;;;;;;2.37;1.63;;;;;;;;;;10323850;28;20348;-70
2024/01/19 03:50:09;;;;;;;10.57;0.75;;;;;;;;;;10333906;28;20818;-70
2024/01/19 03:55:10;;;;;;;0.67;0.67;;;;;;;;;;10277665;28;20200;-70
2024/01/19 04:00:11;;;;;;;0.87;0.50;;;;;;;;;;10321463;28;20201;-70
2024/01/19 04:05:15;;;;;;;5.90;1.10;;;;;;;;;;10328176;28;20212;-70
2024/01/19 04:10:16;;;;;;;1.10;1.10;;;;;;;;;;10334072;28;20215;-70
2024/01/19 04:15:17;;;;;;;0.73;0.73;;;;;;;;;;10312129;28;20596;-70
2024/01/19 04:20:18;;;;;;;5.25;0.77;;;;;;;;;;10309776;28;20192;-70
2024/01/19 04:25:19;;;;;;;0.63;0.63;;;;;;;;;;10308726;28;20757;-70
2024/01/19 04:30:20;;;;;;;1.13;1.00;;;;;;;;;;10326029;28;20213;-70
2024/01/19 04:35:21;;;;;;;0.95;0.52;;;;;;;;;;10311206;28;20679;-70
2024/01/19 04:40:22;;;;;;;2.30;0.90;;;;;;;;;;10324296;28;20212;-70
2024/01/19 04:45:23;;;;;;;2.30;0.90;;;;;;;;;;10280774;28;20237;-70
2024/01/19 04:50:24;;;;;;;1.30;0.87;;;;;;;;;;10327220;28;20283;-70
2024/01/19 04:55:25;;;;;;;1.98;0.95;;;;;;;;;;10311292;28;20621;-70
2024/01/19 05:00:26;;;;;;;1.23;0.65;;;;;;;;;;10307100;28;20204;-70
2024/01/19 05:05:27;;;;;;;0.90;0.90;;;;;;;;;;10316552;28;20244;-70
2024/01/19 05:10:28;;;;;;;3.20;0.93;;;;;;;;;;10301347;28;20304;-71
2024/01/19 05:15:29;;;;;;;3.53;0.82;;;;;;;;;;10315970;28;20208;-70
2024/01/19 05:20:30;;;;;;;0.77;0.77;;;;;;;;;;10309734;28;20188;-70
2024/01/19 05:25:31;;;;;;;1.05;0.80;;;;;;;;;;10315753;28;20220;-70
2024/01/19 05:30:32;;;;;;;1.23;1.03;;;;;;;;;;10321503;28;20295;-69
2024/01/19 05:35:33;;;;;;;1.52;1.00;;;;;;;;;;10305362;28;20213;-70
2024/01/19 05:40:34;;;;;;;1.23;1.23;;;;;;;;;;10309955;28;20726;-70
2024/01/19 05:45:36;;;;;;;1.65;1.55;;;;;;;;;;10280420;28;20225;-70
2024/01/19 05:50:37;;;;;;;3.03;1.73;;;;;;;;;;10270980;28;20613;-70
2024/01/19 05:55:39;;;;;;;2.25;2.03;;;;;;;;;;10307192;28;20205;-70
2024/01/19 06:00:40;;;;;;;3.00;1.85;;;;;;;;;;10302776;28;20213;-70
2024/01/19 06:05:41;;;;;;;2.77;2.10;;;;;;;;;;10294573;28;20304;-70
2024/01/19 06:10:42;;;;;;;2.30;2.00;;;;;;;;;;10283532;28;20213;-72
2024/01/19 06:15:43;;;;;;;3.22;1.95;;;;;;;;;;10292800;28;20600;-70
2024/01/19 06:20:44;;;;;;;4.28;2.20;;;;;;;;;;10292247;28;20197;-70
2024/01/19 06:25:45;;;;;;;3.23;2.17;;;;;;;;;;10288373;28;20211;-70
2024/01/19 06:30:48;;;;;;;1.92;1.83;;;;;;;;;;10278203;28;20825;-70
2024/01/19 06:35:49;;;;;;;2.60;1.95;;;;;;;;;;10291436;28;20228;-71
2024/01/19 06:40:50;;;;;;;6.68;2.95;;;;;;;;;;10277139;28;20273;-71
2024/01/19 06:45:51;;;;;;;8.88;2.70;;;;;;;;;;10288494;28;20218;-70
2024/01/19 06:50:52;;;;;;;2.55;2.35;;;;;;;;;;10283206;28;20213;-70
2024/01/19 06:55:53;;;;;;;6.57;2.27;;;;;;;;;;10294720;28;20223;-71
2024/01/19 07:00:54;;;;;;;3.78;2.20;;;;;;;;;;10269160;28;20219;-70
2024/01/19 07:05:56;;;;;;;4.75;2.50;;;;;;;;;;10301090;28;20727;-70
2024/01/19 07:10:57;;;;;;;3.42;2.85;;;;;;;;;;10305346;28;20232;-71
2024/01/19 07:15:58;;;;;;;3.92;2.60;;;;;;;;;;10288071;28;20204;-70
2024/01/19 07:20:59;;;;;;;3.92;2.20;;;;;;;;;;10294188;28;21060;-70
2024/01/19 07:26:00;;;;;;;4.15;2.22;;;;;;;;;;10303450;28;20220;-70
2024/01/19 07:31:01;;;;;;;2.53;2.33;;;;;;;;;;10299315;28;20772;-70
2024/01/19 07:36:02;;;;;;;4.43;2.75;;;;;;;;;;10312048;28;20267;-71
2024/01/19 07:41:06;;;;;;;4.47;2.27;;;;;;;;;;10286494;28;21081;-70
2024/01/19 07:46:07;;;;;;;3.83;2.88;;;;;;;;;;10299800;28;20731;-71
2024/01/19 07:51:08;;;;;;;3.28;3.05;;;;;;;;;;10297901;28;20219;-70
2024/01/19 07:56:09;;;;;;;3.10;2.78;;;;;;;;;;10299905;28;20231;-70
2024/01/19 08:01:10;;;;;;;6.45;3.38;;;;;;;;;;10289416;28;20304;-70
2024/01/19 08:06:11;;;;;;;3.10;2.92;;;;;;;;;;10310550;28;20786;-70
2024/01/19 08:11:12;;;;;;;6.28;3.00;;;;;;;;;;10316381;28;20744;-70
2024/01/19 08:16:13;;;;;;;4.53;3.38;;;;;;;;;;10315418;28;20200;-70
2024/01/19 08:21:14;;;;;;;3.35;3.08;;;;;;;;;;10307686;28;21133;-70
2024/01/19 08:26:15;;;;;;;8.32;3.55;;;;;;;;;;10297928;28;20209;-70
2024/01/19 08:31:17;;;;;;;5.07;3.60;;;;;;;;;;10302787;28;20230;-70
2024/01/19 08:36:23;;;;;;;5.55;3.40;;;;;;;;;;10268334;28;20241;-70
2024/01/19 08:41:24;;;;;;;4.18;3.25;;;;;;;;;;10236634;28;20190;-71
2024/01/19 08:46:25;;;;;;;5.68;3.10;;;;;;;;;;10249485;28;20214;-71
2024/01/19 08:51:28;;;;;;;4.57;3.15;;;;;;;;;;10272640;28;20202;-71
2024/01/19 08:56:29;;;;;;;6.43;3.58;;;;;;;;;;10264884;28;20210;-71
2024/01/19 09:01:32;;;;;;;3.88;3.58;;;;;;;;;;10258043;28;20240;-69
2024/01/19 09:06:33;;;;;;;5.63;3.65;;;;;;;;;;10258904;28;20284;-69
2024/01/19 09:11:34;;;;;;;3.25;3.05;;;;;;;;;;10278293;28;20202;-68
2024/01/19 09:16:35;;;;;;;6.32;3.53;;;;;;;;;;10273251;28;20300;-68
2024/01/19 09:21:36;;;;;;;4.32;3.97;;;;;;;;;;10275678;28;20189;-68
2024/01/19 09:26:38;;;;;;;7.68;4.28;;;;;;;;;;10262605;28;20218;-68
2024/01/19 09:31:43;;;;;;;7.35;5.47;;;;;;;;;;10285456;28;20777;-68
2024/01/19 09:36:44;;;;;;;6.20;4.53;;;;;;;;;;10312240;28;20212;-69
2024/01/19 09:41:52;;;;;;;8.95;5.28;;;;;;;;;;10283975;28;20220;-68
2024/01/19 09:46:54;;;;;;;9.43;5.32;;;;;;;;;;10289452;28;20238;-69
2024/01/19 09:51:56;;;;;;;11.68;4.72;;;;;;;;;;10290478;28;20212;-69
2024/01/19 09:56:59;;;;;;;10.35;6.18;;;;;;;;;;10297188;28;20292;-69
2024/01/19 10:02:01;;;;;;;10.80;5.63;;;;;;;;;;10300300;28;20225;-69
2024/01/19 10:07:03;;;;;;;6.75;4.88;;;;;;;;;;10308330;28;20241;-70
2024/01/19 10:12:06;;;;;;;10.70;5.18;;;;;;;;;;10297596;28;20217;-70
2024/01/19 10:17:08;;;;;;;9.13;6.40;;;;;;;;;;10308196;28;20205;-70
2024/01/19 10:22:26;;;;;;;11.30;5.78;;;;;;;;;;10291293;28;20235;-70
2024/01/19 10:27:38;;;;;;;12.73;5.38;;;;;;;;;;10286085;28;20212;-69
2024/01/19 10:32:40;;;;;;;13.23;5.03;;;;;;;;;;10303390;28;20323;-70
2024/01/19 10:37:41;;;;;;;10.30;4.75;;;;;;;;;;10293017;28;20213;-70
2024/01/19 10:42:43;;;;;;;10.00;6.00;;;;;;;;;;10294306;28;20675;-70
2024/01/19 10:47:46;;;;;;;5.93;4.13;;;;;;;;;;10298849;28;20237;-71
2024/01/19 10:52:53;;;;;;;8.07;4.65;;;;;;;;;;10302907;28;20759;-71
2024/01/19 10:57:57;;;;;;;11.35;5.68;;;;;;;;;;10304911;28;20193;-71
2024/01/19 11:03:00;;;;;;;10.02;5.25;;;;;;;;;;10295656;28;20244;-71
2024/01/19 11:08:02;;;;;;;8.85;4.88;;;;;;;;;;10287551;28;20580;-71
2024/01/19 11:13:04;;;;;;;7.80;4.78;;;;;;;;;;10298710;28;20204;-71
2024/01/19 11:18:06;;;;;;;5.30;4.65;;;;;;;;;;10268198;28;20193;-71
2024/01/19 11:23:08;;;;;;;7.90;5.05;;;;;;;;;;10299151;28;20180;-71
2024/01/19 11:28:24;;;;;;;6.32;5.13;;;;;;;;;;10294627;28;20215;-71
2024/01/19 11:33:29;;;;;;;7.78;4.63;;;;;;;;;;10285810;28;20590;-71
2024/01/19 11:38:37;;;;;;;5.88;4.95;;;;;;;;;;10307963;28;21720;-72
2024/01/19 11:43:44;;;;;;;12.52;6.05;;;;;;;;;;10313990;28;20601;-72
2024/01/19 11:48:45;;;;;;;8.98;5.55;;;;;;;;;;10307593;28;20573;-72
2024/01/19 11:53:56;;;;;;;10.75;6.05;;;;;;;;;;10309008;28;20201;-72
2024/01/19 11:58:58;;;;;;;7.00;4.70;;;;;;;;;;10293375;28;20194;-72
2024/01/19 12:04:00;;;;;;;11.63;5.80;;;;;;;;;;10292003;28;20217;-71
2024/01/19 12:09:05;;;;;;;8.20;5.38;;;;;;;;;;10310296;28;20212;-72
2024/01/19 12:14:09;;;;;;;12.85;6.03;;;;;;;;;;10290053;28;20208;-71
2024/01/19 12:19:10;;;;;;;10.27;6.35;;;;;;;;;;10322265;28;20191;-71
2024/01/19 12:24:18;;;;;;;12.52;5.40;;;;;;;;;;10288916;28;20220;-72
2024/01/19 12:29:30;;;;;;;9.73;5.93;;;;;;;;;;10305567;28;20205;-72
2024/01/19 12:34:31;;;;;;;9.48;5.53;;;;;;;;;;10320362;28;20770;-72
2024/01/19 12:39:32;;;;;;;7.78;5.53;;;;;;;;;;10308617;28;20198;-71
2024/01/19 12:44:33;;;;;;;8.73;5.38;;;;;;;;;;10293728;28;20701;-71
2024/01/19 12:49:34;;;;;;;9.95;5.78;;;;;;;;;;10320808;28;20209;-71
2024/01/19 12:54:42;;;;;;;8.65;4.82;;;;;;;;;;10296748;28;23990;-71
2024/01/19 12:59:43;;;;;;;6.85;4.80;;;;;;;;;;10319230;28;20252;-70
2024/01/19 13:04:44;;;;;;;11.90;5.55;;;;;;;;;;10295943;28;20216;-71
2024/01/19 13:09:45;;;;;;;10.98;5.18;;;;;;;;;;10294067;28;20216;-71
2024/01/19 13:14:46;;;;;;;7.78;5.22;;;;;;;;;;10294359;28;20566;-71
2024/01/19 13:19:47;;;;;;;11.63;5.03;;;;;;;;;;10302840;28;20196;-71
2024/01/19 13:24:52;;;;;;;9.40;5.38;;;;;;;;;;10294363;28;20973;-71
2024/01/19 13:29:53;;;;;;;8.93;5.53;;;;;;;;;;10315956;28;20213;-71
2024/01/19 13:34:54;;;;;;;8.45;4.80;;;;;;;;;;10300721;28;20699;-70
2024/01/19 13:39:57;;;;;;;8.52;4.68;;;;;;;;;;10285665;28;20189;-71
2024/01/19 13:44:58;;;;;;;7.20;4.55;;;;;;;;;;10310707;28;20209;-71
2024/01/19 13:49:59;;;;;;;6.50;4.88;;;;;;;;;;10314099;28;20236;-71
2024/01/19 13:55:00;;;;;;;13.82;5.70;;;;;;;;;;10318415;28;20822;-70
2024/01/19 14:00:01;;;;;;;7.05;4.30;;;;;;;;;;10289276;28;20343;-71
2024/01/19 14:05:03;;;;;;;9.30;4.53;;;;;;;;;;10295326;28;20265;-71
2024/01/19 14:10:04;;;;;;;9.57;4.75;;;;;;;;;;10293936;28;20214;-71
2024/01/19 14:15:05;;;;;;;10.60;4.45;;;;;;;;;;10270227;28;20295;-70
2024/01/19 14:20:08;;;;;;;11.00;4.43;;;;;;;;;;10263916;28;20212;-71
2024/01/19 14:25:09;;;;;;;7.30;4.18;;;;;;;;;;10298428;28;20213;-70
2024/01/19 14:30:11;;;;;;;6.15;4.20;;;;;;;;;;10295823;28;20239;-71
2024/01/19 14:35:13;;;;;;;8.90;4.25;;;;;;;;;;10298830;28;20319;-71
2024/01/19 14:40:14;;;;;;;7.85;3.70;;;;;;;;;;10263561;28;20197;-70
2024/01/19 14:45:15;;;;;;;7.10;4.00;;;;;;;;;;10285839;28;20225;-71
2024/01/19 14:50:16;;;;;;;8.13;3.33;;;;;;;;;;10309407;28;20213;-71
2024/01/19 14:55:18;;;;;;;8.43;3.58;;;;;;;;;;10300395;28;20209;-70
2024/01/19 15:00:19;;;;;;;6.95;3.53;;;;;;;;;;10292791;28;20189;-70
2024/01/19 15:05:20;;;;;;;6.10;3.53;;;;;;;;;;10311068;28;20208;-72
2024/01/19 15:10:21;;;;;;;7.43;3.97;;;;;;;;;;10300456;28;20624;-71
2024/01/19 15:15:22;;;;;;;5.13;3.65;;;;;;;;;;10299255;28;20584;-70
2024/01/19 15:20:23;;;;;;;5.55;3.45;;;;;;;;;;10299233;28;20191;-70
2024/01/19 15:25:24;;;;;;;9.05;3.65;;;;;;;;;;10288834;28;20839;-70
2024/01/19 15:30:25;;;;;;;10.80;4.13;;;;;;;;;;10289498;28;20212;-71
2024/01/19 15:35:26;;;;;;;9.63;3.30;;;;;;;;;;10214684;28;1957484;-72
2024/01/19 15:40:27;;;;;;;9.07;3.60;;;;;;;;;;10268750;28;20858;-70
2024/01/19 15:45:28;;;;;;;8.02;3.92;;;;;;;;;;10274664;28;21455;-70
2024/01/19 15:50:29;;;;;;;3.92;3.38;;;;;;;;;;10270202;28;20233;-70
2024/01/19 15:55:30;;;;;;;9.82;3.30;;;;;;;;;;10272848;28;20587;-70
2024/01/19 16:00:31;;;;;;;7.72;3.28;;;;;;;;;;10259747;28;20221;-70
2024/01/19 16:05:32;;;;;;;8.82;3.53;;;;;;;;;;10277120;28;20237;-70
2024/01/19 16:10:33;;;;;;;5.88;3.30;;;;;;;;;;10262726;28;20340;-70
2024/01/19 16:15:35;;;;;;;7.40;2.58;;;;;;;;;;10261070;28;20205;-70
2024/01/19 16:20:36;;;;;;;10.07;4.18;;;;;;;;;;10263848;28;20277;-70
2024/01/19 16:25:40;;;;;;;8.63;4.32;;;;;;;;;;10267009;28;20288;-70
2024/01/19 16:30:42;;;;;;;11.07;5.05;;;;;;;;;;10263139;28;20312;-70
2024/01/19 16:35:43;;;;;;;9.55;4.13;;;;;;;;;;10320086;28;20262;-70
2024/01/19 16:40:44;;;;;;;7.38;4.05;;;;;;;;;;10313117;28;20762;-70
2024/01/19 16:45:45;;;;;;;12.52;3.85;;;;;;;;;;10313202;28;20790;-70
2024/01/19 16:50:46;;;;;;;6.20;3.92;;;;;;;;;;10296021;28;20278;-70
2024/01/19 16:55:48;;;;;;;7.60;3.47;;;;;;;;;;10314599;28;20208;-70
2024/01/19 17:00:49;;;;;;;8.75;4.07;;;;;;;;;;10296256;28;20292;-69
2024/01/19 17:05:50;;;;;;;6.68;2.90;;;;;;;;;;10292112;28;20209;-70
2024/01/19 17:10:51;;;;;;;8.38;2.25;;;;;;;;;;10304394;28;20773;-70
2024/01/19 17:15:52;;;;;;;4.05;2.67;;;;;;;;;;10293274;28;20211;-69
2024/01/19 17:20:53;;;;;;;6.03;3.30;;;;;;;;;;10307917;28;20181;-69
2024/01/19 17:25:55;;;;;;;7.05;3.30;;;;;;;;;;10288274;28;20204;-70
2024/01/19 17:30:56;;;;;;;7.65;4.07;;;;;;;;;;10287510;28;20237;-69
2024/01/19 17:35:57;;;;;;;6.68;3.50;;;;;;;;;;10314560;28;20409;-71
2024/01/19 17:40:58;;;;;;;7.78;3.72;;;;;;;;;;10307746;28;20188;-69
2024/01/19 17:46:05;;;;;;;10.07;3.70;;;;;;;;;;10309187;28;20209;-70
2024/01/19 17:51:07;;;;;;;3.63;3.30;;;;;;;;;;10328617;28;20738;-69
2024/01/19 17:56:08;;;;;;;6.30;2.75;;;;;;;;;;10313457;28;20212;-69
2024/01/19 18:01:09;;;;;;;9.27;3.15;;;;;;;;;;10305486;28;20209;-69
2024/01/19 18:06:10;;;;;;;11.70;3.58;;;;;;;;;;10314676;28;20746;-70
2024/01/19 18:11:12;;;;;;;6.72;2.90;;;;;;;;;;10321421;28;20204;-69
2024/01/19 18:16:13;;;;;;;2.92;2.28;;;;;;;;;;10308746;28;20219;-69
2024/01/19 18:21:14;;;;;;;7.38;3.05;;;;;;;;;;10319771;28;20188;-69
2024/01/19 18:26:15;;;;;;;9.50;2.60;;;;;;;;;;10303317;28;20351;-69
2024/01/19 18:31:16;;;;;;;3.10;2.90;;;;;;;;;;10305813;28;20664;-69
2024/01/19 18:36:18;;;;;;;5.28;2.90;;;;;;;;;;10279669;28;20244;-70
2024/01/19 18:41:19;;;;;;;10.77;3.95;;;;;;;;;;10281424;28;20185;-69
2024/01/19 18:46:20;;;;;;;3.45;2.80;;;;;;;;;;10297759;28;20263;-69
2024/01/19 18:51:22;;;;;;;9.25;2.65;;;;;;;;;;10312709;28;20217;-69
2024/01/19 18:56:22;;;;;;;5.85;2.60;;;;;;;;;;10305242;28;20902;-69
2024/01/19 19:01:24;;;;;;;7.97;3.05;;;;;;;;;;10285952;28;20266;-69
2024/01/19 19:06:27;;;;;;;4.57;3.03;;;;;;;;;;10276271;28;20979;-68
2024/01/19 19:11:28;;;;;;;7.63;4.22;;;;;;;;;;10268126;28;20834;-69
2024/01/19 19:16:29;;;;;;;6.50;3.20;;;;;;;;;;10308016;28;20215;-69
2024/01/19 19:21:30;;;;;;;6.65;2.80;;;;;;;;;;10289694;28;20195;-68
2024/01/19 19:26:32;;;;;;;3.30;2.05;;;;;;;;;;10305456;28;20285;-68
2024/01/19 19:31:33;;;;;;;9.00;2.65;;;;;;;;;;10305165;28;20232;-69
2024/01/19 19:36:34;;;;;;;3.45;3.10;;;;;;;;;;10287279;28;20793;-69
2024/01/19 19:41:35;;;;;;;11.73;2.38;;;;;;;;;;10300537;28;20188;-69
2024/01/19 19:46:36;;;;;;;9.30;2.08;;;;;;;;;;10280268;28;20200;-69
2024/01/19 19:51:38;;;;;;;2.30;2.03;;;;;;;;;;10298193;28;20209;-68
2024/01/19 19:56:39;;;;;;;8.60;2.67;;;;;;;;;;10291938;28;20588;-68
2024/01/19 20:01:40;;;;;;;3.50;2.58;;;;;;;;;;10295190;28;20216;-68
2024/01/19 20:06:41;;;;;;;4.32;1.98;;;;;;;;;;10310322;28;20212;-69
2024/01/19 20:11:42;;;;;;;3.97;2.03;;;;;;;;;;10316899;28;20740;-69
2024/01/19 20:16:43;;;;;;;4.47;1.90;;;;;;;;;;10305063;28;20205;-68
2024/01/19 20:21:44;;;;;;;7.07;2.28;;;;;;;;;;10318390;28;20774;-68
2024/01/19 20:26:45;;;;;;;5.40;2.03;;;;;;;;;;10311009;28;20299;-68
2024/01/19 20:31:46;;;;;;;3.03;2.38;;;;;;;;;;10318034;28;20235;-68
2024/01/19 20:36:47;;;;;;;12.57;2.28;;;;;;;;;;10302323;28;20219;-68
2024/01/19 20:41:48;;;;;;;2.25;2.05;;;;;;;;;;10304426;28;20200;-68
2024/01/19 20:46:49;;;;;;;3.22;1.80;;;;;;;;;;10310653;28;20251;-68
2024/01/19 20:51:50;;;;;;;6.43;2.38;;;;;;;;;;10302284;28;20240;-68
2024/01/19 20:56:52;;;;;;;4.60;1.92;;;;;;;;;;10305931;28;20208;-69
2024/01/19 21:01:53;;;;;;;3.45;1.45;;;;;;;;;;10288166;28;20295;-68
2024/01/19 21:06:54;;;;;;;7.85;1.77;;;;;;;;;;10315410;28;20211;-68
2024/01/19 21:11:55;;;;;;;3.38;1.90;;;;;;;;;;10308912;28;20232;-69
2024/01/19 21:16:56;;;;;;;2.58;1.70;;;;;;;;;;10314314;28;20225;-71
2024/01/19 21:21:59;;;;;;;5.25;1.77;;;;;;;;;;10299491;28;20207;-68
2024/01/19 21:27:01;;;;;;;3.10;1.58;;;;;;;;;;10317821;28;20231;-68
2024/01/19 21:32:02;;;;;;;6.47;1.90;;;;;;;;;;10289740;28;20980;-68
2024/01/19 21:37:03;;;;;;;2.75;1.30;;;;;;;;;;10315567;28;20213;-68
2024/01/19 21:42:04;;;;;;;5.88;1.60;;;;;;;;;;10313870;28;20192;-68
2024/01/19 21:47:07;;;;;;;4.05;1.67;;;;;;;;;;10297636;28;20307;-68
2024/01/19 21:52:08;;;;;;;1.40;1.40;;;;;;;;;;10294854;28;20243;-67
2024/01/19 21:57:09;;;;;;;5.05;2.03;;;;;;;;;;10330678;28;20216;-67
2024/01/19 22:02:10;;;;;;;3.72;1.85;;;;;;;;;;10323170;28;20208;-68
2024/01/19 22:07:13;;;;;;;6.18;2.35;;;;;;;;;;10312250;28;20702;-67
2024/01/19 22:12:14;;;;;;;9.07;2.75;;;;;;;;;;10317297;28;20211;-68
2024/01/19 22:17:15;;;;;;;5.85;1.92;;;;;;;;;;10277489;28;20207;-68
2024/01/19 22:22:16;;;;;;;2.75;1.85;;;;;;;;;;10304700;28;20283;-68
2024/01/19 22:27:17;;;;;;;2.42;1.77;;;;;;;;;;10318259;28;21626;-70
2024/01/19 22:32:18;;;;;;;2.83;1.95;;;;;;;;;;10314298;28;20652;-68
2024/01/19 22:37:19;;;;;;;1.52;1.42;;;;;;;;;;10314684;28;20212;-68
2024/01/19 22:42:21;;;;;;;5.07;2.10;;;;;;;;;;10322275;28;20195;-68
2024/01/19 22:47:23;;;;;;;2.42;1.75;;;;;;;;;;10306969;28;20212;-68
2024/01/19 22:52:24;;;;;;;3.60;1.92;;;;;;;;;;10288351;28;20727;-68
2024/01/19 22:57:25;;;;;;;3.00;1.90;;;;;;;;;;10313497;28;20582;-68
2024/01/19 23:02:26;;;;;;;3.95;2.42;;;;;;;;;;10313691;28;20244;-68
2024/01/19 23:07:27;;;;;;;5.45;2.42;;;;;;;;;;10289670;28;20606;-68
2024/01/19 23:12:28;;;;;;;2.90;2.70;;;;;;;;;;10311118;28;20207;-68
2024/01/19 23:17:30;;;;;;;6.68;3.10;;;;;;;;;;10298319;28;20211;-68
2024/01/19 23:22:31;;;;;;;5.40;2.92;;;;;;;;;;10320702;28;20674;-69
2024/01/19 23:27:32;;;;;;;4.75;2.67;;;;;;;;;;10304972;28;20217;-68
2024/01/19 23:32:33;;;;;;;10.30;2.78;;;;;;;;;;10316297;28;20227;-68
2024/01/19 23:37:34;;;;;;;4.82;3.47;;;;;;;;;;10301906;28;20212;-68
2024/01/19 23:42:35;;;;;;;5.63;2.50;;;;;;;;;;10333699;28;20185;-68
2024/01/19 23:47:36;;;;;;;5.70;3.00;;;;;;;;;;10303294;28;20240;-69
2024/01/19 23:52:37;;;;;;;7.88;3.25;;;;;;;;;;10310301;28;20221;-68
2024/01/19 23:57:38;;;;;;;5.43;3.05;;;;;;;;;;10313054;28;20304;-68
